createdAt,value
2023-03-01T00:00:24.030Z,12.50
2023-03-01T00:03:26.997Z,13.03
2023-03-01T00:06:31.782Z,15.53
2023-03-01T00:09:35.196Z,13.87
2023-03-01T00:12:38.474Z,12.80
2023-03-01T00:15:42.378Z,13.50
2023-03-01T00:18:45.453Z,12.93
2023-03-01T00:21:52.718Z,17.43
2023-03-01T00:24:58.194Z,14.37
2023-03-01T00:28:01.298Z,13.90
2023-03-01T00:31:06.153Z,12.87
2023-03-01T00:34:09.225Z,12.77
2023-03-01T00:37:13.753Z,12.47
2023-03-01T00:40:17.306Z,15.73
2023-03-01T00:43:20.500Z,15.53
2023-03-01T00:46:25.418Z,17.70
2023-03-01T00:49:28.676Z,14.13
2023-03-01T00:52:33.012Z,15.93
2023-03-01T00:55:38.254Z,14.23
2023-03-01T00:58:41.834Z,14.63
2023-03-01T01:01:44.784Z,13.90
2023-03-01T01:04:48.285Z,13.50
2023-03-01T01:07:52.697Z,16.73
2023-03-01T01:10:55.700Z,13.47
2023-03-01T01:13:59.956Z,16.50
2023-03-01T01:17:03.008Z,13.90
2023-03-01T01:20:07.005Z,12.87
2023-03-01T01:23:11.335Z,15.23
2023-03-01T01:26:16.585Z,13.80
2023-03-01T01:29:19.579Z,12.83
2023-03-01T01:32:22.728Z,15.90
2023-03-01T01:35:25.775Z,16.17
2023-03-01T01:38:30.146Z,12.80
2023-03-01T01:41:33.973Z,12.53
2023-03-01T01:44:37.093Z,12.73
2023-03-01T01:47:40.193Z,12.47
2023-03-01T01:50:45.909Z,12.87
2023-03-01T01:53:53.409Z,13.60
2023-03-01T01:57:00.994Z,14.33
2023-03-01T02:00:11.316Z,12.17
2023-03-01T02:03:19.315Z,15.17
2023-03-01T02:06:30.128Z,15.33
2023-03-01T02:09:35.648Z,13.57
2023-03-01T02:12:40.518Z,12.20
2023-03-01T02:15:45.020Z,12.87
2023-03-01T02:18:48.433Z,15.10
2023-03-01T02:22:00.171Z,14.43
2023-03-01T02:25:19.145Z,13.73
2023-03-01T02:28:27.821Z,14.83
2023-03-01T02:31:45.973Z,14.07
2023-03-01T02:34:49.156Z,13.07
2023-03-01T02:37:52.616Z,13.13
2023-03-01T02:40:58.897Z,15.07
2023-03-01T02:44:03.779Z,12.73
2023-03-01T02:47:07.182Z,12.20
2023-03-01T02:50:27.240Z,14.10
2023-03-01T02:53:41.506Z,12.17
2023-03-01T02:56:49.145Z,14.20
2023-03-01T02:59:56.244Z,11.73
2023-03-01T03:02:59.390Z,13.47
2023-03-01T03:06:02.365Z,12.97
2023-03-01T03:09:05.805Z,16.50
2023-03-01T03:12:08.917Z,15.60
2023-03-01T03:15:14.073Z,13.80
2023-03-01T03:18:19.778Z,16.37
2023-03-01T03:21:22.763Z,14.30
2023-03-01T03:24:25.747Z,14.63
2023-03-01T03:27:29.663Z,12.43
2023-03-01T03:30:34.177Z,12.70
2023-03-01T03:33:37.650Z,13.13
2023-03-01T03:36:40.631Z,13.33
2023-03-01T03:39:43.728Z,12.50
2023-03-01T03:42:46.857Z,13.33
2023-03-01T03:45:53.226Z,12.90
2023-03-01T03:48:56.356Z,13.03
2023-03-01T03:51:59.396Z,15.00
2023-03-01T03:55:02.386Z,13.00
2023-03-01T03:58:07.928Z,15.60
2023-03-01T04:01:12.595Z,14.43
2023-03-01T04:04:18.815Z,13.67
2023-03-01T04:07:21.874Z,15.63
2023-03-01T04:10:24.840Z,19.17
2023-03-01T04:13:28.386Z,16.10
2023-03-01T04:16:33.501Z,15.67
2023-03-01T04:19:37.356Z,16.53
2023-03-01T04:22:41.416Z,18.57
2023-03-01T04:25:47.602Z,17.13
2023-03-01T04:28:51.395Z,18.03
2023-03-01T04:31:57.581Z,17.83
2023-03-01T04:35:01.070Z,16.23
2023-03-01T04:38:04.262Z,17.93
2023-03-01T04:41:07.831Z,19.00
2023-03-01T04:44:11.161Z,17.80
2023-03-01T04:47:15.545Z,17.27
2023-03-01T04:50:21.261Z,20.73
2023-03-01T04:53:24.233Z,18.63
2023-03-01T04:56:27.315Z,19.60
2023-03-01T04:59:30.499Z,22.87
2023-03-01T05:02:35.027Z,19.47
2023-03-01T05:05:39.498Z,18.60
2023-03-01T05:08:45.778Z,16.87
2023-03-01T05:11:49.194Z,16.13
2023-03-01T05:14:52.290Z,21.53
2023-03-01T05:17:59.604Z,22.23
2023-03-01T05:21:06.404Z,20.83
2023-03-01T05:24:12.656Z,22.03
2023-03-01T05:27:15.966Z,16.77
2023-03-01T05:30:19.684Z,19.13
2023-03-01T05:33:24.052Z,21.80
2023-03-01T05:36:27.125Z,18.37
2023-03-01T05:39:32.484Z,23.83
2023-03-01T05:42:35.631Z,24.37
2023-03-01T05:45:39.992Z,22.57
2023-03-01T05:48:44.702Z,20.80
2023-03-01T05:51:51.173Z,20.60
2023-03-01T05:54:54.178Z,23.90
2023-03-01T05:57:57.289Z,22.60
2023-03-01T06:01:01.467Z,20.10
2023-03-01T06:04:06.338Z,22.70
2023-03-01T06:07:09.560Z,20.03
2023-03-01T06:10:14.203Z,20.37
2023-03-01T06:13:17.117Z,19.50
2023-03-01T06:16:20.440Z,19.50
2023-03-01T06:19:24.742Z,24.13
2023-03-01T06:22:27.714Z,25.23
2023-03-01T06:25:30.723Z,22.77
2023-03-01T06:28:33.615Z,22.57
2023-03-01T06:31:36.777Z,26.27
2023-03-01T06:34:41.058Z,23.07
2023-03-01T06:37:44.215Z,25.87
2023-03-01T06:40:53.480Z,23.97
2023-03-01T06:43:56.558Z,27.83
2023-03-01T06:46:59.763Z,25.50
2023-03-01T06:50:04.913Z,26.00
2023-03-01T06:53:07.872Z,28.30
2023-03-01T06:56:10.791Z,29.37
2023-03-01T06:59:15.119Z,24.27
2023-03-01T07:02:18.440Z,25.10
2023-03-01T07:05:23.076Z,25.70
2023-03-01T07:08:26.005Z,21.73
2023-03-01T07:11:28.947Z,23.57
2023-03-01T07:14:31.911Z,23.13
2023-03-01T07:17:34.834Z,23.53
2023-03-01T07:20:39.118Z,24.50
2023-03-01T07:23:42.395Z,26.70
2023-03-01T07:26:45.442Z,24.33
2023-03-01T07:29:48.418Z,21.33
2023-03-01T07:32:53.512Z,21.73
2023-03-01T07:36:00.118Z,23.30
2023-03-01T07:39:04.104Z,21.70
2023-03-01T07:42:07.315Z,21.53
2023-03-01T07:45:11.085Z,17.80
2023-03-01T07:48:13.976Z,19.53
2023-03-01T07:51:19.878Z,25.50
2023-03-01T07:54:24.192Z,20.00
2023-03-01T07:57:27.555Z,22.17
2023-03-01T08:00:30.940Z,19.40
2023-03-01T08:03:34.569Z,19.53
2023-03-01T08:06:38.921Z,18.43
2023-03-01T08:09:41.869Z,21.83
2023-03-01T08:12:44.796Z,16.47
2023-03-01T08:15:47.758Z,18.97
2023-03-01T08:18:50.997Z,22.77
2023-03-01T08:21:55.341Z,18.80
2023-03-01T08:24:58.598Z,19.70
2023-03-01T08:28:01.542Z,22.47
2023-03-01T08:31:05.001Z,19.03
2023-03-01T08:34:10.865Z,21.23
2023-03-01T08:37:15.419Z,17.37
2023-03-01T08:40:18.574Z,14.20
2023-03-01T08:43:22.783Z,13.37
2023-03-01T08:46:25.882Z,11.30
2023-03-01T08:49:28.777Z,13.93
2023-03-01T08:52:34.929Z,10.90
2023-03-01T08:55:37.950Z,12.40
2023-03-01T08:58:41.610Z,14.63
2023-03-01T09:01:45.545Z,12.03
2023-03-01T09:04:48.594Z,11.67
2023-03-01T09:07:53.185Z,15.70
2023-03-01T09:10:56.592Z,12.30
2023-03-01T09:13:59.674Z,10.60
2023-03-01T09:17:04.065Z,11.63
2023-03-01T09:20:08.013Z,11.63
2023-03-01T09:23:12.398Z,11.03
2023-03-01T09:26:17.510Z,9.80
2023-03-01T09:29:20.461Z,9.13
2023-03-01T09:32:23.446Z,9.30
2023-03-01T09:35:26.734Z,9.57
2023-03-01T09:38:32.180Z,7.67
2023-03-01T09:42:00.715Z,6.83
2023-03-01T09:45:08.481Z,6.67
2023-03-01T09:48:18.424Z,6.80
2023-03-01T09:51:27.088Z,9.63
2023-03-01T09:54:31.799Z,8.40
2023-03-01T09:57:43.136Z,7.93
2023-03-01T10:00:49.361Z,8.30
2023-03-01T10:04:07.480Z,8.87
2023-03-01T10:07:26.862Z,8.27
2023-03-01T10:10:36.296Z,7.17
2023-03-01T10:13:49.928Z,7.73
2023-03-01T10:16:59.771Z,8.00
2023-03-01T10:20:19.684Z,7.90
2023-03-01T10:23:24.625Z,7.60
2023-03-01T10:26:48.084Z,7.20
2023-03-01T10:29:58.229Z,7.33
2023-03-01T10:33:03.074Z,7.30
2023-03-01T10:36:07.503Z,7.33
2023-03-01T10:39:16.869Z,7.97
2023-03-01T10:42:29.217Z,7.00
2023-03-01T10:45:38.057Z,6.80
2023-03-01T10:48:41.058Z,7.20
2023-03-01T10:51:46.158Z,6.37
2023-03-01T10:54:55.409Z,8.87
2023-03-01T10:58:21.066Z,5.90
2023-03-01T11:01:30.159Z,7.40
2023-03-01T11:04:33.833Z,6.20
2023-03-01T11:07:49.495Z,6.60
2023-03-01T11:10:52.606Z,6.10
2023-03-01T11:13:59.729Z,5.37
2023-03-01T11:17:05.201Z,6.17
2023-03-01T11:20:29.916Z,5.43
2023-03-01T11:23:34.997Z,5.70
2023-03-01T11:26:41.790Z,5.33
2023-03-01T11:29:52.098Z,6.03
2023-03-01T11:33:08.000Z,6.20
2023-03-01T11:36:18.872Z,5.63
2023-03-01T11:39:33.423Z,5.37
2023-03-01T11:42:50.220Z,4.27
2023-03-01T11:46:16.995Z,3.87
2023-03-01T11:49:43.651Z,4.60
2023-03-01T11:52:59.327Z,5.50
2023-03-01T11:56:15.641Z,3.97
2023-03-01T11:59:55.331Z,4.43
2023-03-01T12:03:20.045Z,4.70
2023-03-01T12:06:53.034Z,4.77
2023-03-01T12:10:21.456Z,5.40
2023-03-01T12:14:00.924Z,4.80
2023-03-01T12:17:20.894Z,4.80
2023-03-01T12:20:34.436Z,4.37
2023-03-01T12:24:00.941Z,5.03
2023-03-01T12:27:20.531Z,4.50
2023-03-01T12:30:35.484Z,4.53
2023-03-01T12:33:49.765Z,4.20
2023-03-01T12:37:10.715Z,4.57
2023-03-01T12:40:31.032Z,4.20
2023-03-01T12:43:47.251Z,4.07
2023-03-01T12:47:03.044Z,4.90
2023-03-01T12:50:14.237Z,4.43
2023-03-01T12:53:25.611Z,3.70
2023-03-01T12:56:32.313Z,4.60
2023-03-01T12:59:42.058Z,4.60
2023-03-01T13:02:52.418Z,4.20
2023-03-01T13:06:09.453Z,4.47
2023-03-01T13:09:21.590Z,4.90
2023-03-01T13:12:54.591Z,4.20
2023-03-01T13:15:58.633Z,4.30
2023-03-01T13:19:10.532Z,4.67
2023-03-01T13:22:34.388Z,4.27
2023-03-01T13:26:02.679Z,4.93
2023-03-01T13:29:28.403Z,4.40
2023-03-01T13:32:43.416Z,4.37
2023-03-01T13:35:47.934Z,4.13
2023-03-01T13:38:59.015Z,3.93
2023-03-01T13:42:05.116Z,3.83
2023-03-01T13:45:38.429Z,4.50
2023-03-01T13:48:42.703Z,7.30
2023-03-01T13:51:49.146Z,5.47
2023-03-01T13:54:52.610Z,4.23
2023-03-01T13:57:59.103Z,4.23
2023-03-01T14:01:05.447Z,4.30
2023-03-01T14:04:23.507Z,4.57
2023-03-01T14:07:30.421Z,4.93
2023-03-01T14:10:44.110Z,4.73
2023-03-01T14:14:12.531Z,4.40
2023-03-01T14:17:57.281Z,5.53
2023-03-01T14:21:01.947Z,5.43
2023-03-01T14:24:06.242Z,4.33
2023-03-01T14:27:14.093Z,5.33
2023-03-01T14:30:21.655Z,4.77
2023-03-01T14:33:26.997Z,4.27
2023-03-01T14:36:33.022Z,4.50
2023-03-01T14:39:36.134Z,5.20
2023-03-01T14:42:41.371Z,4.43
2023-03-01T14:45:50.280Z,6.73
2023-03-01T14:48:55.056Z,4.00
2023-03-01T14:52:03.792Z,4.70
2023-03-01T14:55:09.428Z,4.63
2023-03-01T14:58:16.776Z,4.83
2023-03-01T15:01:20.708Z,4.43
2023-03-01T15:04:24.673Z,5.07
2023-03-01T15:07:34.552Z,3.93
2023-03-01T15:10:40.605Z,4.20
2023-03-01T15:13:44.640Z,5.00
2023-03-01T15:16:50.353Z,4.70
2023-03-01T15:19:53.374Z,5.10
2023-03-01T15:22:59.073Z,5.00
2023-03-01T15:26:01.996Z,4.67
2023-03-01T15:29:05.096Z,4.67
2023-03-01T15:32:27.505Z,4.33
2023-03-01T15:35:43.866Z,4.10
2023-03-01T15:38:56.298Z,4.77
2023-03-01T15:41:59.355Z,4.40
2023-03-01T15:45:11.655Z,4.67
2023-03-01T15:48:20.935Z,4.77
2023-03-01T15:51:30.790Z,4.30
2023-03-01T15:54:35.776Z,4.77
2023-03-01T15:57:38.754Z,5.10
2023-03-01T16:00:54.483Z,4.90
2023-03-01T16:04:02.304Z,4.30
2023-03-01T16:07:05.494Z,4.87
2023-03-01T16:10:10.805Z,4.60
2023-03-01T16:13:13.957Z,5.60
2023-03-01T16:16:18.126Z,5.30
2023-03-01T16:19:21.251Z,6.20
2023-03-01T16:22:26.093Z,5.00
2023-03-01T16:25:31.508Z,5.50
2023-03-01T16:28:34.452Z,5.37
2023-03-01T16:31:37.497Z,5.23
2023-03-01T16:34:40.876Z,5.40
2023-03-01T16:37:44.876Z,5.20
2023-03-01T16:40:52.993Z,4.57
2023-03-01T16:43:56.034Z,4.87
2023-03-01T16:46:59.232Z,4.90
2023-03-01T16:50:02.296Z,5.60
2023-03-01T16:53:05.342Z,6.10
2023-03-01T16:56:12.092Z,6.37
2023-03-01T16:59:15.494Z,6.17
2023-03-01T17:02:20.801Z,6.20
2023-03-01T17:05:25.548Z,6.50
2023-03-01T17:08:28.520Z,8.03
2023-03-01T17:11:33.545Z,7.17
2023-03-01T17:14:38.701Z,6.67
2023-03-01T17:17:41.636Z,7.00
2023-03-01T17:20:44.770Z,7.40
2023-03-01T17:23:50.850Z,6.93
2023-03-01T17:26:55.166Z,7.90
2023-03-01T17:29:58.153Z,6.33
2023-03-01T17:33:01.192Z,5.47
2023-03-01T17:36:04.383Z,5.50
2023-03-01T17:39:07.460Z,4.97
2023-03-01T17:42:11.835Z,5.80
2023-03-01T17:45:14.889Z,6.00
2023-03-01T17:48:19.482Z,5.47
2023-03-01T17:51:22.580Z,5.87
2023-03-01T17:54:25.790Z,5.87
2023-03-01T17:57:30.594Z,5.87
2023-03-01T18:00:34.348Z,8.97
2023-03-01T18:03:37.517Z,9.67
2023-03-01T18:06:41.728Z,9.40
2023-03-01T18:09:44.973Z,7.63
2023-03-01T18:12:49.360Z,9.77
2023-03-01T18:15:52.882Z,7.30
2023-03-01T18:18:57.008Z,8.67
2023-03-01T18:22:00.134Z,8.73
2023-03-01T18:25:03.519Z,11.40
2023-03-01T18:28:08.337Z,8.60
2023-03-01T18:31:12.309Z,9.97
2023-03-01T18:34:15.358Z,7.57
2023-03-01T18:37:18.628Z,8.03
2023-03-01T18:40:21.858Z,8.20
2023-03-01T18:43:28.842Z,9.57
2023-03-01T18:46:33.350Z,8.93
2023-03-01T18:49:37.772Z,9.53
2023-03-01T18:52:41.035Z,8.37
2023-03-01T18:55:44.187Z,8.43
2023-03-01T18:58:48.741Z,13.40
2023-03-01T19:01:51.859Z,9.70
2023-03-01T19:04:55.100Z,10.70
2023-03-01T19:07:58.553Z,9.87
2023-03-01T19:11:03.590Z,9.47
2023-03-01T19:14:08.615Z,10.10
2023-03-01T19:17:11.735Z,16.40
2023-03-01T19:20:15.226Z,12.03
2023-03-01T19:23:20.954Z,9.70
2023-03-01T19:26:26.219Z,14.37
2023-03-01T19:29:30.806Z,12.50
2023-03-01T19:32:34.671Z,11.13
2023-03-01T19:35:37.733Z,10.47
2023-03-01T19:38:42.395Z,12.40
2023-03-01T19:41:48.149Z,9.90
2023-03-01T19:44:53.395Z,11.67
2023-03-01T19:47:57.163Z,10.43
2023-03-01T19:51:00.618Z,11.87
2023-03-01T19:54:05.304Z,11.90
2023-03-01T19:57:08.389Z,13.20
2023-03-01T20:00:14.975Z,11.57
2023-03-01T20:03:18.488Z,13.90
2023-03-01T20:06:21.742Z,14.43
2023-03-01T20:09:24.835Z,11.33
2023-03-01T20:12:27.923Z,13.53
2023-03-01T20:15:32.862Z,15.40
2023-03-01T20:18:35.934Z,11.77
2023-03-01T20:21:38.995Z,12.03
2023-03-01T20:24:42.287Z,11.20
2023-03-01T20:27:48.723Z,12.33
2023-03-01T20:30:53.205Z,13.33
2023-03-01T20:33:57.978Z,14.40
2023-03-01T20:37:02.725Z,13.83
2023-03-01T20:40:09.570Z,14.53
2023-03-01T20:43:12.619Z,22.17
2023-03-01T20:46:17.223Z,18.83
2023-03-01T20:49:21.543Z,19.97
2023-03-01T20:52:24.591Z,20.20
2023-03-01T20:55:27.643Z,19.90
2023-03-01T20:58:32.772Z,21.93
2023-03-01T21:01:38.650Z,23.90
2023-03-01T21:04:41.925Z,15.93
2023-03-01T21:07:46.183Z,21.67
2023-03-01T21:10:51.900Z,19.97
2023-03-01T21:13:55.364Z,15.93
2023-03-01T21:16:59.996Z,17.37
2023-03-01T21:20:04.749Z,18.80
2023-03-01T21:23:08.180Z,21.10
2023-03-01T21:26:13.200Z,15.13
2023-03-01T21:29:16.192Z,16.33
2023-03-01T21:32:23.388Z,20.13
2023-03-01T21:35:26.662Z,15.87
2023-03-01T21:38:32.410Z,17.93
2023-03-01T21:41:37.330Z,14.97
2023-03-01T21:44:40.728Z,14.97
2023-03-01T21:47:45.255Z,16.07
2023-03-01T21:50:56.313Z,15.23
2023-03-01T21:54:01.078Z,16.20
2023-03-01T21:57:04.297Z,15.97
2023-03-01T22:00:08.775Z,12.43
2023-03-01T22:03:14.245Z,11.87
2023-03-01T22:06:22.817Z,13.83
2023-03-01T22:09:26.231Z,12.80
2023-03-01T22:12:29.639Z,14.97
2023-03-01T22:15:32.725Z,17.10
2023-03-01T22:18:37.366Z,16.33
2023-03-01T22:21:41.593Z,15.47
2023-03-01T22:24:44.723Z,15.40
2023-03-01T22:27:47.777Z,15.50
2023-03-01T22:30:50.865Z,12.53
2023-03-01T22:33:56.919Z,14.37
2023-03-01T22:37:00.440Z,11.87
2023-03-01T22:40:06.819Z,15.40
2023-03-01T22:43:10.211Z,20.40
2023-03-01T22:46:15.063Z,21.07
2023-03-01T22:49:22.724Z,21.20
2023-03-01T22:52:26.004Z,21.00
2023-03-01T22:55:29.661Z,23.07
2023-03-01T22:58:32.700Z,22.10
2023-03-01T23:01:36.394Z,20.50
2023-03-01T23:04:40.864Z,16.17
2023-03-01T23:07:44.822Z,19.73
2023-03-01T23:10:48.000Z,16.57
2023-03-01T23:13:51.984Z,14.73
2023-03-01T23:16:55.137Z,15.90
2023-03-01T23:19:59.880Z,20.90
2023-03-01T23:23:02.978Z,18.30
2023-03-01T23:26:06.913Z,15.83
2023-03-01T23:29:11.607Z,16.73
2023-03-01T23:32:14.869Z,19.57
2023-03-01T23:35:19.839Z,17.87
2023-03-01T23:38:23.262Z,19.13
2023-03-01T23:41:30.203Z,19.07
2023-03-01T23:44:33.536Z,19.13
2023-03-01T23:47:36.754Z,18.23
2023-03-01T23:50:44.857Z,19.50
2023-03-01T23:53:55.252Z,14.47
2023-03-01T23:56:58.294Z,17.50
